sensor_id;sensor_type;location;lat;lon;timestamp;pressure;altitude;pressure_sealevel;temperature;humidity
75913;BME280;64592;52.168;21.040;2023-05-18T00:00:53;101123.94;;;9.19;71.86
75913;BME280;64592;52.168;21.040;2023-05-18T00:05:56;101123.34;;;9.14;71.50
75913;BME280;64592;52.168;21.040;2023-05-18T00:11:06;101115.28;;;9.14;71.82
75913;BME280;64592;52.168;21.040;2023-05-18T00:16:09;101118.47;;;9.20;69.98
75913;BME280;64592;52.168;21.040;2023-05-18T00:21:15;101123.13;;;9.18;69.68
75913;BME280;64592;52.168;21.040;2023-05-18T00:26:17;101121.53;;;9.14;69.47
75913;BME280;64592;52.168;21.040;2023-05-18T00:31:21;101123.78;;;9.06;68.98
75913;BME280;64592;52.168;21.040;2023-05-18T00:36:26;101127.28;;;9.08;68.58
75913;BME280;64592;52.168;21.040;2023-05-18T00:41:27;101133.00;;;9.02;67.39
75913;BME280;64592;52.168;21.040;2023-05-18T00:46:32;101140.13;;;9.03;68.49
75913;BME280;64592;52.168;21.040;2023-05-18T00:51:35;101151.63;;;9.05;67.98
75913;BME280;64592;52.168;21.040;2023-05-18T00:56:38;101148.25;;;9.02;68.34
75913;BME280;64592;52.168;21.040;2023-05-18T01:01:47;101155.03;;;8.93;67.78
75913;BME280;64592;52.168;21.040;2023-05-18T01:06:49;101151.81;;;8.86;67.93
75913;BME280;64592;52.168;21.040;2023-05-18T01:12:02;101144.25;;;8.93;68.03
75913;BME280;64592;52.168;21.040;2023-05-18T01:17:12;101146.00;;;8.94;67.88
75913;BME280;64592;52.168;21.040;2023-05-18T01:22:23;101147.75;;;8.95;68.54
75913;BME280;64592;52.168;21.040;2023-05-18T01:27:31;101158.94;;;9.03;69.03
75913;BME280;64592;52.168;21.040;2023-05-18T01:32:38;101160.06;;;8.99;70.13
75913;BME280;64592;52.168;21.040;2023-05-18T01:37:41;101162.66;;;9.01;69.80
75913;BME280;64592;52.168;21.040;2023-05-18T01:42:48;101162.13;;;8.94;69.43
75913;BME280;64592;52.168;21.040;2023-05-18T01:47:55;101174.78;;;8.92;69.76
75913;BME280;64592;52.168;21.040;2023-05-18T01:53:02;101177.41;;;8.93;69.14
75913;BME280;64592;52.168;21.040;2023-05-18T01:58:09;101176.88;;;8.87;68.79
75913;BME280;64592;52.168;21.040;2023-05-18T02:03:13;101180.50;;;8.86;68.92
75913;BME280;64592;52.168;21.040;2023-05-18T02:08:14;101181.38;;;8.86;69.30
75913;BME280;64592;52.168;21.040;2023-05-18T02:13:18;101182.41;;;8.84;69.70
75913;BME280;64592;52.168;21.040;2023-05-18T02:18:20;101187.72;;;8.85;70.11
75913;BME280;64592;52.168;21.040;2023-05-18T02:23:23;101187.00;;;8.82;69.82
75913;BME280;64592;52.168;21.040;2023-05-18T02:28:28;101193.59;;;8.76;69.99
75913;BME280;64592;52.168;21.040;2023-05-18T02:33:31;101194.19;;;8.66;71.07
75913;BME280;64592;52.168;21.040;2023-05-18T02:38:36;101187.41;;;8.59;71.03
75913;BME280;64592;52.168;21.040;2023-05-18T02:43:41;101189.22;;;8.58;71.51
75913;BME280;64592;52.168;21.040;2023-05-18T02:48:42;101200.03;;;8.56;72.41
75913;BME280;64592;52.168;21.040;2023-05-18T02:53:45;101201.94;;;8.54;72.77
75913;BME280;64592;52.168;21.040;2023-05-18T02:58:52;101210.00;;;8.54;72.64
75913;BME280;64592;52.168;21.040;2023-05-18T03:03:56;101217.38;;;8.51;73.47
75913;BME280;64592;52.168;21.040;2023-05-18T03:09:00;101223.16;;;8.43;72.40
75913;BME280;64592;52.168;21.040;2023-05-18T03:14:04;101210.03;;;8.37;73.95
75913;BME280;64592;52.168;21.040;2023-05-18T03:19:06;101226.72;;;8.44;73.26
75913;BME280;64592;52.168;21.040;2023-05-18T03:24:07;101231.22;;;8.43;72.52
75913;BME280;64592;52.168;21.040;2023-05-18T03:29:10;101227.72;;;8.41;73.74
75913;BME280;64592;52.168;21.040;2023-05-18T03:34:15;101239.34;;;8.42;73.28
75913;BME280;64592;52.168;21.040;2023-05-18T03:39:17;101243.53;;;8.47;72.54
75913;BME280;64592;52.168;21.040;2023-05-18T03:44:21;101234.66;;;8.45;72.36
75913;BME280;64592;52.168;21.040;2023-05-18T03:49:23;101242.03;;;8.42;71.61
75913;BME280;64592;52.168;21.040;2023-05-18T03:54:25;101258.78;;;8.47;71.69
75913;BME280;64592;52.168;21.040;2023-05-18T03:59:28;101249.91;;;8.45;72.01
75913;BME280;64592;52.168;21.040;2023-05-18T04:04:30;101265.97;;;8.46;71.83
75913;BME280;64592;52.168;21.040;2023-05-18T04:09:35;101263.44;;;8.43;72.85
75913;BME280;64592;52.168;21.040;2023-05-18T04:14:38;101262.50;;;8.44;72.30
75913;BME280;64592;52.168;21.040;2023-05-18T04:19:41;101270.25;;;8.50;72.58
75913;BME280;64592;52.168;21.040;2023-05-18T04:24:43;101272.84;;;8.52;72.37
75913;BME280;64592;52.168;21.040;2023-05-18T04:29:48;101274.69;;;8.51;72.14
75913;BME280;64592;52.168;21.040;2023-05-18T04:34:51;101281.88;;;8.51;72.73
75913;BME280;64592;52.168;21.040;2023-05-18T04:39:54;101283.28;;;8.58;72.61
75913;BME280;64592;52.168;21.040;2023-05-18T04:45:03;101282.41;;;8.57;73.35
75913;BME280;64592;52.168;21.040;2023-05-18T04:50:06;101286.19;;;8.53;72.64
75913;BME280;64592;52.168;21.040;2023-05-18T04:55:14;101288.72;;;8.56;73.08
75913;BME280;64592;52.168;21.040;2023-05-18T05:00:19;101286.50;;;8.47;74.30
75913;BME280;64592;52.168;21.040;2023-05-18T05:05:21;101292.50;;;8.52;74.47
75913;BME280;64592;52.168;21.040;2023-05-18T05:10:26;101295.38;;;8.49;75.10
75913;BME280;64592;52.168;21.040;2023-05-18T05:15:34;101303.56;;;8.46;74.80
75913;BME280;64592;52.168;21.040;2023-05-18T05:20:36;101308.47;;;8.55;75.29
75913;BME280;64592;52.168;21.040;2023-05-18T05:25:42;101308.63;;;8.52;75.08
75913;BME280;64592;52.168;21.040;2023-05-18T05:30:45;101318.63;;;8.50;75.59
75913;BME280;64592;52.168;21.040;2023-05-18T05:35:47;101316.78;;;8.51;75.55
75913;BME280;64592;52.168;21.040;2023-05-18T05:40:49;101325.72;;;8.51;75.46
75913;BME280;64592;52.168;21.040;2023-05-18T05:45:53;101325.47;;;8.56;75.65
75913;BME280;64592;52.168;21.040;2023-05-18T05:50:55;101332.22;;;8.65;75.39
75913;BME280;64592;52.168;21.040;2023-05-18T05:55:57;101324.44;;;8.76;75.28
75913;BME280;64592;52.168;21.040;2023-05-18T06:01:04;101332.50;;;8.76;74.01
75913;BME280;64592;52.168;21.040;2023-05-18T06:06:07;101331.00;;;8.87;74.34
75913;BME280;64592;52.168;21.040;2023-05-18T06:11:09;101335.19;;;8.93;72.87
75913;BME280;64592;52.168;21.040;2023-05-18T06:16:13;101332.97;;;9.01;73.74
75913;BME280;64592;52.168;21.040;2023-05-18T06:21:15;101334.97;;;9.13;72.70
75913;BME280;64592;52.168;21.040;2023-05-18T06:26:17;101335.22;;;9.26;71.89
75913;BME280;64592;52.168;21.040;2023-05-18T06:31:23;101343.09;;;9.29;71.16
75913;BME280;64592;52.168;21.040;2023-05-18T06:36:25;101341.19;;;9.31;70.79
75913;BME280;64592;52.168;21.040;2023-05-18T06:41:27;101346.31;;;9.35;70.04
75913;BME280;64592;52.168;21.040;2023-05-18T06:46:30;101344.94;;;9.44;69.65
75913;BME280;64592;52.168;21.040;2023-05-18T06:51:32;101354.19;;;9.56;69.76
75913;BME280;64592;52.168;21.040;2023-05-18T06:56:33;101354.00;;;9.59;69.44
75913;BME280;64592;52.168;21.040;2023-05-18T07:01:38;101353.50;;;9.68;70.17
75913;BME280;64592;52.168;21.040;2023-05-18T07:06:40;101359.06;;;9.81;69.65
75913;BME280;64592;52.168;21.040;2023-05-18T07:11:42;101359.78;;;9.84;67.49
75913;BME280;64592;52.168;21.040;2023-05-18T07:16:46;101365.69;;;9.91;68.29
75913;BME280;64592;52.168;21.040;2023-05-18T07:21:48;101368.97;;;9.96;67.70
75913;BME280;64592;52.168;21.040;2023-05-18T07:26:51;101379.03;;;10.08;67.94
75913;BME280;64592;52.168;21.040;2023-05-18T07:31:55;101369.53;;;10.18;67.92
75913;BME280;64592;52.168;21.040;2023-05-18T07:36:56;101373.00;;;10.20;67.56
75913;BME280;64592;52.168;21.040;2023-05-18T07:41:58;101378.75;;;10.30;68.21
75913;BME280;64592;52.168;21.040;2023-05-18T07:47:01;101385.50;;;10.37;66.55
75913;BME280;64592;52.168;21.040;2023-05-18T07:52:04;101387.22;;;10.38;67.10
75913;BME280;64592;52.168;21.040;2023-05-18T07:57:06;101392.28;;;10.44;66.20
75913;BME280;64592;52.168;21.040;2023-05-18T08:02:09;101394.63;;;10.50;67.90
75913;BME280;64592;52.168;21.040;2023-05-18T08:07:11;101401.38;;;10.57;66.50
75913;BME280;64592;52.168;21.040;2023-05-18T08:12:13;101399.03;;;10.67;65.87
75913;BME280;64592;52.168;21.040;2023-05-18T08:17:20;101407.78;;;10.70;65.02
75913;BME280;64592;52.168;21.040;2023-05-18T08:22:21;101398.56;;;10.74;64.97
75913;BME280;64592;52.168;21.040;2023-05-18T08:27:23;101412.44;;;10.82;65.04
75913;BME280;64592;52.168;21.040;2023-05-18T08:32:28;101408.66;;;11.01;65.23
75913;BME280;64592;52.168;21.040;2023-05-18T08:37:31;101408.09;;;11.10;64.84
75913;BME280;64592;52.168;21.040;2023-05-18T08:42:39;101407.72;;;11.16;63.44
75913;BME280;64592;52.168;21.040;2023-05-18T08:47:49;101409.09;;;11.23;63.37
75913;BME280;64592;52.168;21.040;2023-05-18T08:52:54;101399.34;;;11.35;64.08
75913;BME280;64592;52.168;21.040;2023-05-18T08:57:58;101405.06;;;11.44;62.27
75913;BME280;64592;52.168;21.040;2023-05-18T09:03:06;101399.09;;;11.53;62.50
75913;BME280;64592;52.168;21.040;2023-05-18T09:08:08;101405.06;;;11.58;62.25
75913;BME280;64592;52.168;21.040;2023-05-18T09:13:11;101399.00;;;11.69;61.67
75913;BME280;64592;52.168;21.040;2023-05-18T09:18:16;101402.13;;;11.77;60.55
75913;BME280;64592;52.168;21.040;2023-05-18T09:23:18;101392.75;;;11.83;60.29
75913;BME280;64592;52.168;21.040;2023-05-18T09:28:28;101392.06;;;11.79;61.62
75913;BME280;64592;52.168;21.040;2023-05-18T09:33:35;101395.81;;;11.91;61.95
75913;BME280;64592;52.168;21.040;2023-05-18T09:38:41;101398.59;;;12.03;62.49
75913;BME280;64592;52.168;21.040;2023-05-18T09:43:47;101403.69;;;12.08;62.69
75913;BME280;64592;52.168;21.040;2023-05-18T09:48:55;101406.38;;;12.22;62.74
75913;BME280;64592;52.168;21.040;2023-05-18T09:53:58;101403.28;;;12.28;61.88
75913;BME280;64592;52.168;21.040;2023-05-18T09:59:07;101403.84;;;12.33;62.01
75913;BME280;64592;52.168;21.040;2023-05-18T10:04:11;101409.44;;;12.30;62.15
75913;BME280;64592;52.168;21.040;2023-05-18T10:09:14;101403.66;;;12.36;61.79
75913;BME280;64592;52.168;21.040;2023-05-18T10:14:17;101403.22;;;12.42;62.56
75913;BME280;64592;52.168;21.040;2023-05-18T10:19:26;101402.63;;;12.52;62.45
75913;BME280;64592;52.168;21.040;2023-05-18T10:24:29;101395.94;;;12.57;61.87
75913;BME280;64592;52.168;21.040;2023-05-18T10:29:32;101407.34;;;12.75;61.15
75913;BME280;64592;52.168;21.040;2023-05-18T10:34:37;101391.44;;;12.83;62.03
75913;BME280;64592;52.168;21.040;2023-05-18T10:39:43;101396.47;;;12.89;60.00
75913;BME280;64592;52.168;21.040;2023-05-18T10:44:46;101401.47;;;12.95;59.28
75913;BME280;64592;52.168;21.040;2023-05-18T10:49:50;101399.63;;;13.08;59.48
75913;BME280;64592;52.168;21.040;2023-05-18T10:54:52;101403.16;;;13.23;59.58
75913;BME280;64592;52.168;21.040;2023-05-18T10:59:54;101400.44;;;13.36;60.52
75913;BME280;64592;52.168;21.040;2023-05-18T11:04:59;101397.63;;;13.50;57.01
75913;BME280;64592;52.168;21.040;2023-05-18T11:10:01;101403.16;;;13.61;56.12
75913;BME280;64592;52.168;21.040;2023-05-18T11:15:06;101385.91;;;13.75;56.64
75913;BME280;64592;52.168;21.040;2023-05-18T11:20:15;101380.00;;;13.93;55.97
75913;BME280;64592;52.168;21.040;2023-05-18T11:25:39;101378.72;;;13.99;55.25
75913;BME280;64592;52.168;21.040;2023-05-18T11:30:48;101382.69;;;14.06;55.20
75913;BME280;64592;52.168;21.040;2023-05-18T11:36:00;101383.31;;;14.10;55.69
75913;BME280;64592;52.168;21.040;2023-05-18T11:41:04;101383.63;;;14.18;56.26
75913;BME280;64592;52.168;21.040;2023-05-18T11:46:16;101385.09;;;14.34;55.35
75913;BME280;64592;52.168;21.040;2023-05-18T11:51:20;101382.13;;;14.50;54.38
75913;BME280;64592;52.168;21.040;2023-05-18T11:56:24;101379.53;;;14.72;53.33
75913;BME280;64592;52.168;21.040;2023-05-18T12:01:28;101389.22;;;14.88;53.59
75913;BME280;64592;52.168;21.040;2023-05-18T12:06:31;101393.84;;;15.09;53.57
75913;BME280;64592;52.168;21.040;2023-05-18T12:11:35;101389.34;;;15.32;52.48
75913;BME280;64592;52.168;21.040;2023-05-18T12:16:40;101381.44;;;15.51;52.07
75913;BME280;64592;52.168;21.040;2023-05-18T12:21:45;101381.00;;;15.69;51.53
75913;BME280;64592;52.168;21.040;2023-05-18T12:26:47;101382.47;;;15.73;49.96
75913;BME280;64592;52.168;21.040;2023-05-18T12:31:49;101381.97;;;15.79;51.08
75913;BME280;64592;52.168;21.040;2023-05-18T12:36:53;101374.91;;;15.87;51.20
75913;BME280;64592;52.168;21.040;2023-05-18T12:42:07;101373.47;;;15.83;50.42
75913;BME280;64592;52.168;21.040;2023-05-18T12:47:10;101378.03;;;15.83;50.92
75913;BME280;64592;52.168;21.040;2023-05-18T12:52:15;101375.91;;;15.86;51.56
75913;BME280;64592;52.168;21.040;2023-05-18T12:57:17;101370.34;;;15.88;49.08
75913;BME280;64592;52.168;21.040;2023-05-18T13:02:27;101377.66;;;15.54;48.81
75913;BME280;64592;52.168;21.040;2023-05-18T13:07:31;101384.16;;;15.51;50.37
75913;BME280;64592;52.168;21.040;2023-05-18T13:12:41;101378.41;;;15.56;51.80
75913;BME280;64592;52.168;21.040;2023-05-18T13:17:57;101375.47;;;15.35;52.24
75913;BME280;64592;52.168;21.040;2023-05-18T13:23:03;101383.38;;;15.16;52.68
75913;BME280;64592;52.168;21.040;2023-05-18T13:28:09;101376.31;;;15.13;53.26
75913;BME280;64592;52.168;21.040;2023-05-18T13:33:11;101372.44;;;15.05;52.29
75913;BME280;64592;52.168;21.040;2023-05-18T13:38:19;101370.47;;;14.96;53.50
75913;BME280;64592;52.168;21.040;2023-05-18T13:43:21;101370.94;;;14.90;54.18
75913;BME280;64592;52.168;21.040;2023-05-18T13:48:23;101372.91;;;14.88;54.13
75913;BME280;64592;52.168;21.040;2023-05-18T13:53:28;101372.63;;;14.80;52.94
75913;BME280;64592;52.168;21.040;2023-05-18T13:58:30;101375.19;;;14.70;53.44
75913;BME280;64592;52.168;21.040;2023-05-18T14:03:32;101378.75;;;14.70;54.26
75913;BME280;64592;52.168;21.040;2023-05-18T14:08:37;101384.31;;;14.69;53.96
75913;BME280;64592;52.168;21.040;2023-05-18T14:13:38;101376.06;;;14.70;55.08
75913;BME280;64592;52.168;21.040;2023-05-18T14:18:45;101367.88;;;14.59;53.85
75913;BME280;64592;52.168;21.040;2023-05-18T14:23:48;101370.06;;;14.54;53.67
75913;BME280;64592;52.168;21.040;2023-05-18T14:28:53;101364.63;;;14.54;54.39
75913;BME280;64592;52.168;21.040;2023-05-18T14:33:54;101375.06;;;14.48;54.59
75913;BME280;64592;52.168;21.040;2023-05-18T14:38:59;101379.34;;;14.39;54.75
75913;BME280;64592;52.168;21.040;2023-05-18T14:44:01;101374.91;;;14.38;56.19
75913;BME280;64592;52.168;21.040;2023-05-18T14:49:03;101384.22;;;14.34;55.54
75913;BME280;64592;52.168;21.040;2023-05-18T14:54:06;101383.81;;;14.27;54.45
75913;BME280;64592;52.168;21.040;2023-05-18T14:59:08;101381.22;;;14.26;56.16
75913;BME280;64592;52.168;21.040;2023-05-18T15:04:10;101387.31;;;14.17;55.57
75913;BME280;64592;52.168;21.040;2023-05-18T15:09:15;101389.72;;;14.09;55.77
75913;BME280;64592;52.168;21.040;2023-05-18T15:14:17;101385.31;;;14.08;56.04
75913;BME280;64592;52.168;21.040;2023-05-18T15:19:20;101385.41;;;14.06;56.70
75913;BME280;64592;52.168;21.040;2023-05-18T15:24:23;101388.34;;;14.03;56.00
75913;BME280;64592;52.168;21.040;2023-05-18T15:29:26;101383.25;;;13.98;55.83
75913;BME280;64592;52.168;21.040;2023-05-18T15:34:28;101384.34;;;13.96;56.28
75913;BME280;64592;52.168;21.040;2023-05-18T15:39:35;101380.44;;;13.87;56.51
75913;BME280;64592;52.168;21.040;2023-05-18T15:44:37;101389.78;;;13.83;57.01
75913;BME280;64592;52.168;21.040;2023-05-18T15:49:40;101385.78;;;13.76;57.48
75913;BME280;64592;52.168;21.040;2023-05-18T15:54:43;101381.69;;;13.71;57.65
75913;BME280;64592;52.168;21.040;2023-05-18T15:59:45;101378.78;;;13.61;57.99
75913;BME280;64592;52.168;21.040;2023-05-18T16:04:48;101390.56;;;13.60;58.83
75913;BME280;64592;52.168;21.040;2023-05-18T16:09:54;101390.56;;;13.60;58.00
75913;BME280;64592;52.168;21.040;2023-05-18T16:14:55;101392.31;;;13.61;58.50
75913;BME280;64592;52.168;21.040;2023-05-18T16:19:57;101396.09;;;13.58;58.13
75913;BME280;64592;52.168;21.040;2023-05-18T16:25:00;101391.78;;;13.56;58.35
75913;BME280;64592;52.168;21.040;2023-05-18T16:30:02;101396.19;;;13.57;58.62
75913;BME280;64592;52.168;21.040;2023-05-18T16:35:05;101398.72;;;13.60;59.32
75913;BME280;64592;52.168;21.040;2023-05-18T16:40:10;101396.78;;;13.62;59.96
75913;BME280;64592;52.168;21.040;2023-05-18T16:45:12;101396.78;;;13.62;59.08
75913;BME280;64592;52.168;21.040;2023-05-18T16:50:14;101400.66;;;13.58;59.24
75913;BME280;64592;52.168;21.040;2023-05-18T16:55:18;101394.81;;;13.51;59.53
75913;BME280;64592;52.168;21.040;2023-05-18T17:00:22;101399.25;;;13.52;60.07
75913;BME280;64592;52.168;21.040;2023-05-18T17:05:23;101408.25;;;13.53;61.00
75913;BME280;64592;52.168;21.040;2023-05-18T17:10:27;101410.44;;;13.48;60.89
75913;BME280;64592;52.168;21.040;2023-05-18T17:15:28;101407.16;;;13.43;60.00
75913;BME280;64592;52.168;21.040;2023-05-18T17:20:30;101409.97;;;13.41;60.42
75913;BME280;64592;52.168;21.040;2023-05-18T17:25:35;101406.81;;;13.35;60.73
75913;BME280;64592;52.168;21.040;2023-05-18T17:30:36;101414.41;;;13.30;61.17
75913;BME280;64592;52.168;21.040;2023-05-18T17:35:38;101413.66;;;13.28;61.27
75913;BME280;64592;52.168;21.040;2023-05-18T17:40:43;101418.44;;;13.24;61.54
75913;BME280;64592;52.168;21.040;2023-05-18T17:45:48;101416.88;;;13.20;61.93
75913;BME280;64592;52.168;21.040;2023-05-18T17:50:50;101418.97;;;13.16;62.27
75913;BME280;64592;52.168;21.040;2023-05-18T17:55:54;101429.00;;;13.14;62.09
75913;BME280;64592;52.168;21.040;2023-05-18T18:00:56;101428.16;;;13.14;63.08
75913;BME280;64592;52.168;21.040;2023-05-18T18:06:00;101435.31;;;13.15;63.27
75913;BME280;64592;52.168;21.040;2023-05-18T18:11:03;101439.94;;;13.13;64.42
75913;BME280;64592;52.168;21.040;2023-05-18T18:16:05;101443.03;;;13.07;65.52
75913;BME280;64592;52.168;21.040;2023-05-18T18:21:07;101440.66;;;13.02;66.78
75913;BME280;64592;52.168;21.040;2023-05-18T18:26:12;101440.22;;;12.96;66.56
75913;BME280;64592;52.168;21.040;2023-05-18T18:31:14;101437.81;;;12.91;67.23
75913;BME280;64592;52.168;21.040;2023-05-18T18:36:16;101444.97;;;12.92;68.39
75913;BME280;64592;52.168;21.040;2023-05-18T18:41:21;101447.56;;;12.94;68.36
75913;BME280;64592;52.168;21.040;2023-05-18T18:46:23;101451.13;;;12.94;68.82
75913;BME280;64592;52.168;21.040;2023-05-18T18:51:25;101457.53;;;12.93;69.07
75913;BME280;64592;52.168;21.040;2023-05-18T18:56:28;101456.75;;;12.91;69.23
75913;BME280;64592;52.168;21.040;2023-05-18T19:01:31;101456.75;;;12.91;69.77
75913;BME280;64592;52.168;21.040;2023-05-18T19:06:33;101456.84;;;12.90;69.45
75913;BME280;64592;52.168;21.040;2023-05-18T19:11:37;101454.28;;;12.88;70.50
75913;BME280;64592;52.168;21.040;2023-05-18T19:16:38;101463.63;;;12.82;72.75
75913;BME280;64592;52.168;21.040;2023-05-18T19:21:40;101459.41;;;12.78;74.65
75913;BME280;64592;52.168;21.040;2023-05-18T19:26:45;101460.72;;;12.73;76.27
75913;BME280;64592;52.168;21.040;2023-05-18T19:31:47;101459.75;;;12.74;75.70
75913;BME280;64592;52.168;21.040;2023-05-18T19:36:49;101457.22;;;12.71;75.57
75913;BME280;64592;52.168;21.040;2023-05-18T19:41:52;101456.34;;;12.70;75.58
75913;BME280;64592;52.168;21.040;2023-05-18T19:46:58;101456.78;;;12.64;74.20
75913;BME280;64592;52.168;21.040;2023-05-18T19:51:59;101468.56;;;12.63;73.25
75913;BME280;64592;52.168;21.040;2023-05-18T19:57:08;101457.63;;;12.65;72.55
75913;BME280;64592;52.168;21.040;2023-05-18T20:02:10;101472.13;;;12.64;71.57
75913;BME280;64592;52.168;21.040;2023-05-18T20:07:11;101472.22;;;12.62;70.79
75913;BME280;64592;52.168;21.040;2023-05-18T20:12:14;101474.94;;;12.62;71.10
75913;BME280;64592;52.168;21.040;2023-05-18T20:17:17;101476.78;;;12.62;70.57
75913;BME280;64592;52.168;21.040;2023-05-18T20:22:20;101480.25;;;12.64;70.33
75913;BME280;64592;52.168;21.040;2023-05-18T20:27:23;101483.06;;;12.62;70.62
75913;BME280;64592;52.168;21.040;2023-05-18T20:32:25;101483.28;;;12.59;70.71
75913;BME280;64592;52.168;21.040;2023-05-18T20:37:28;101486.06;;;12.58;70.13
75913;BME280;64592;52.168;21.040;2023-05-18T20:42:31;101488.78;;;12.58;70.02
75913;BME280;64592;52.168;21.040;2023-05-18T20:47:37;101491.47;;;12.58;69.40
75913;BME280;64592;52.168;21.040;2023-05-18T20:52:40;101495.25;;;12.55;69.02
75913;BME280;64592;52.168;21.040;2023-05-18T20:57:45;101507.91;;;12.55;68.94
75913;BME280;64592;52.168;21.040;2023-05-18T21:02:48;101500.88;;;12.52;69.40
75913;BME280;64592;52.168;21.040;2023-05-18T21:07:50;101503.66;;;12.51;68.88
75913;BME280;64592;52.168;21.040;2023-05-18T21:12:54;101516.41;;;12.49;69.27
75913;BME280;64592;52.168;21.040;2023-05-18T21:17:56;101520.78;;;12.51;69.07
75913;BME280;64592;52.168;21.040;2023-05-18T21:22:58;101518.94;;;12.52;68.39
75913;BME280;64592;52.168;21.040;2023-05-18T21:28:01;101513.31;;;12.55;68.58
75913;BME280;64592;52.168;21.040;2023-05-18T21:33:03;101514.66;;;12.48;69.02
75913;BME280;64592;52.168;21.040;2023-05-18T21:38:05;101514.03;;;12.44;69.29
75913;BME280;64592;52.168;21.040;2023-05-18T21:43:08;101522.22;;;12.42;69.75
75913;BME280;64592;52.168;21.040;2023-05-18T21:48:10;101533.22;;;12.39;70.31
75913;BME280;64592;52.168;21.040;2023-05-18T21:53:12;101533.44;;;12.36;71.23
75913;BME280;64592;52.168;21.040;2023-05-18T21:58:16;101523.00;;;12.30;72.10
75913;BME280;64592;52.168;21.040;2023-05-18T22:03:20;101533.16;;;12.27;72.93
75913;BME280;64592;52.168;21.040;2023-05-18T22:08:22;101540.47;;;12.25;72.98
75913;BME280;64592;52.168;21.040;2023-05-18T22:13:26;101547.72;;;12.24;73.52
75913;BME280;64592;52.168;21.040;2023-05-18T22:18:27;101554.09;;;12.23;73.63
75913;BME280;64592;52.168;21.040;2023-05-18T22:23:32;101540.78;;;12.20;74.40
75913;BME280;64592;52.168;21.040;2023-05-18T22:28:35;101550.63;;;12.21;74.40
75913;BME280;64592;52.168;21.040;2023-05-18T22:33:37;101545.22;;;12.21;75.48
75913;BME280;64592;52.168;21.040;2023-05-18T22:38:39;101544.44;;;12.19;75.91
75913;BME280;64592;52.168;21.040;2023-05-18T22:43:44;101547.53;;;12.13;76.85
75913;BME280;64592;52.168;21.040;2023-05-18T22:48:47;101555.84;;;12.10;77.14
75913;BME280;64592;52.168;21.040;2023-05-18T22:53:49;101550.03;;;12.02;77.40
75913;BME280;64592;52.168;21.040;2023-05-18T22:58:56;101553.03;;;11.97;78.25
75913;BME280;64592;52.168;21.040;2023-05-18T23:04:00;101557.75;;;11.94;77.93
75913;BME280;64592;52.168;21.040;2023-05-18T23:09:02;101549.94;;;11.89;78.95
75913;BME280;64592;52.168;21.040;2023-05-18T23:14:07;101543.84;;;11.86;79.52
75913;BME280;64592;52.168;21.040;2023-05-18T23:19:09;101547.41;;;11.86;79.88
75913;BME280;64592;52.168;21.040;2023-05-18T23:24:13;101538.56;;;11.84;79.93
75913;BME280;64592;52.168;21.040;2023-05-18T23:29:18;101540.94;;;11.75;80.48
75913;BME280;64592;52.168;21.040;2023-05-18T23:34:22;101543.91;;;11.70;80.14
75913;BME280;64592;52.168;21.040;2023-05-18T23:39:25;101540.78;;;11.62;80.93
75913;BME280;64592;52.168;21.040;2023-05-18T23:44:29;101532.94;;;11.57;80.84
75913;BME280;64592;52.168;21.040;2023-05-18T23:49:31;101537.00;;;11.50;80.85
75913;BME280;64592;52.168;21.040;2023-05-18T23:54:33;101537.28;;;11.46;80.24
75913;BME280;64592;52.168;21.040;2023-05-18T23:59:38;101532.34;;;11.38;79.86
